Robert G. Stone, Jr. — WDD4596 — position and weather

sailwx.info

Track history (hours):
 
Tides and Currents Weather Stations Pressure Air Temp Water Temp Dewpoint Dewpoint Depression Visibility Wind Speed Wind Dir Waves Ship Positions

Robert G. Stone, Jr.

Owner: Kirby Inland Marine, LP, Houston, TX. More information available from US FCC via Universal Licensing System and Coast Guard Vessel Documentation Center.

Last reported at 2015-May-23 11:33 UTC. Time now 2015-May-23 11:54 UTC.
Position N 29°32' W 090°49'.

Length 27 m; draft 3.1 m.

Type: Towing. MMSI: 367146780.

Date/timePositionNaut miles runAvg speedWind from/ knotsBaromVisibWave heightAir tempDewpointWater temp
2015-May-23 11:33N 29°32' W 090°49'7 6.6
2015-May-23 10:33N 29°34' W 090°56'  
2015-May-19 22:26N 29°20' W 094°50'2 0.1
2015-May-19 05:31N 29°21' W 094°49'  
2015-May-16 00:29N 29°17' W 094°59'9 4.6
2015-May-15 22:33N 29°21' W 094°49'4 4.3
2015-May-15 21:33N 29°24' W 094°46'12 3.9
2015-May-15 18:21N 29°17' W 094°58'5 4.7
2015-May-15 17:15N 29°19' W 094°52'4 5.2
2015-May-15 16:33N 29°21' W 094°49'  
Track history (hours):
 
Tides and Currents Weather Stations Pressure Air Temp Water Temp Dewpoint Dewpoint Depression Visibility Wind Speed Wind Dir Waves Ship Positions

Robert G. Stone, Jr.

Owner: Kirby Inland Marine, LP, Houston, TX. More information available from US FCC via Universal Licensing System and Coast Guard Vessel Documentation Center.

Last reported at 2015-May-23 11:33 UTC. Time now 2015-May-23 11:54 UTC.
Position N 29°32' W 090°49'.

Length 27 m; draft 3.1 m.

Type: Towing. MMSI: 367146780.

Date/timePositionNaut miles runAvg speedWind from/ knotsBaromVisibWave heightAir tempDewpointWater temp
2015-May-23 11:33N 29°32' W 090°49'7 6.6
2015-May-23 10:33N 29°34' W 090°56'  
2015-May-19 22:26N 29°20' W 094°50'2 0.1
2015-May-19 05:31N 29°21' W 094°49'  
2015-May-16 00:29N 29°17' W 094°59'9 4.6
2015-May-15 22:33N 29°21' W 094°49'4 4.3
2015-May-15 21:33N 29°24' W 094°46'12 3.9
2015-May-15 18:21N 29°17' W 094°58'5 4.7
2015-May-15 17:15N 29°19' W 094°52'4 5.2
2015-May-15 16:33N 29°21' W 094°49'  

Dump ship's entire track history